STAZIONE METEO DI BARCELLONA P.G. CENTRO
Dati campionati ogni minuto da Consolle Davis Vantage Pro 2
ed inviati alla rete mediante server Anemos WDS5 wview



Barcellona P.G. Ovest  Barcellona P.G. Ovest


Golfo di Patti  Golfo di Patti


Thunder radar more information blitzortung!


Rain radar  rain snow radar


altri nostri siti meteo:

Rete NOAA MADIS

Italia Meteo Network

Pomeziameteo

Albisolameteo



Temperature massime estreme Inizio validità dal: 24-07-2017 09:00 Fino: 18:59 Allerta per: Temperature massime estreme Livello: Arancione info button
english:
No Special Awareness Required

italiano:
Nessun Avviso 

Report METAR

   
LICF - Barcellona Pozzo di Gotto
Dati ricevuti: 24-07-2017 15:55
Sereno  
Sereno  
   Vento: SW 20.4 km/h
Vento: SW 20.4 km/h
Temperatura: 31°C
Indice di Calore: 31°C
P.to Rugiada: 17°C
Umidità: 43%
Barometro: 1009 hPa
Visibilità: oltre 10 km
dettagli cloud: Sereno
LICF 241355Z 22011KT CAVOK 31/17 Q1009 RMK OVC OVC200 QUK 3 QUL 1 SW VIS MAR 18 KM MON LIB NC VIS MIN 9999
LICC - Catania
Dati ricevuti: 24-07-2017 16:20
Sereno  
Sereno  
   Vento: Oriente 18.5 km/h
Vento: Oriente 18.5 km/h
Temperatura: 31°C
Indice di Calore: 32°C
P.to Rugiada: 19°C
Umidità: 49%
Barometro: 1008 hPa
Visibilità: oltre 10 km
dettagli cloud: Sereno
LICC 241420Z 08010KT 040V110 CAVOK 31/19 Q1008
LICJ - Palermo
Dati ricevuti: 24-07-2017 16:20
Poche nuvole  
Poche nuvole  
   Vento: W 13 km/h
Vento: W 13 km/h
Temperatura: 28°C
Indice di Calore: 32°C
P.to Rugiada: 24°C
Umidità: 79%
Barometro: 1010 hPa
Nuvole: Poche nuvole
Visibilità: 9 km
dettagli cloud: Poche nuvole 609.6 m
LICJ 241420Z 24007KT 200V280 9000 FEW020 28/24 Q1010
LICF - Messina
Dati ricevuti: 24-07-2017 15:55
Sereno  
Sereno  
   Vento: SW 20.4 km/h
Vento: SW 20.4 km/h
Temperatura: 31°C
Indice di Calore: 31°C
P.to Rugiada: 17°C
Umidità: 43%
Barometro: 1009 hPa
Visibilità: oltre 10 km
dettagli cloud: Sereno
LICF 241355Z 22011KT CAVOK 31/17 Q1009 RMK OVC OVC200 QUK 3 QUL 1 SW VIS MAR 18 KM MON LIB NC VIS MIN 9999
LICC - Milazzo
Dati ricevuti: 24-07-2017 16:20
Sereno  
Sereno  
   Vento: Oriente 18.5 km/h
Vento: Oriente 18.5 km/h
Temperatura: 31°C
Indice di Calore: 32°C
P.to Rugiada: 19°C
Umidità: 49%
Barometro: 1008 hPa
Visibilità: oltre 10 km
dettagli cloud: Sereno
LICC 241420Z 08010KT 040V110 CAVOK 31/19 Q1008
LICC - Terme Vigliatore
Dati ricevuti: 24-07-2017 16:20
Sereno  
Sereno  
   Vento: Oriente 18.5 km/h
Vento: Oriente 18.5 km/h
Temperatura: 31°C
Indice di Calore: 32°C
P.to Rugiada: 19°C
Umidità: 49%
Barometro: 1008 hPa
Visibilità: oltre 10 km
dettagli cloud: Sereno
LICC 241420Z 08010KT 040V110 CAVOK 31/19 Q1008
LICT - Trapani
Dati ricevuti: 24-07-2017 15:55
Poche nuvole  
Poche nuvole  
   Vento: NO 20.4 km/h
Vento: NO 20.4 km/h
Temperatura: 30°C
Indice di Calore: 39°C
P.to Rugiada: 27°C
Umidità: 84%
Barometro: 1010 hPa
Nuvole: Poche nuvole
Visibilità: oltre 10 km
dettagli cloud: Poche nuvole 701 m
LICT 241355Z 31011KT 9999 FEW023 30/27 Q1010
  

Script sviluppato da  Saratoga-weather.org Adattato per il modello da  Weerstation Leuven

Potete trovare le nostre info meteo anche a:

European Weather Network

Weather Underground

AWEKAS

Citizen Weather Observer Program (CWOP)

HAMweather, WeatherForYou, PWS Weather

Strumentazione usata:

Stazione meteo
Davis VP2

Programma gestore dati meteo
WVIEW

Server per i dati meteo
WDS5 Ecoblack

Davis VP2

WVIEW

WDS5 Ecoblack